Imperial Eagle — V7TK5 — position and weather

sailwx.info

Track history (hours):
 
Tides and Currents Weather Stations Pressure Air Temp Water Temp Dewpoint Dewpoint Depression Visibility Wind Speed Wind Dir Waves Ship Positions

Imperial Eagle

Last reported at 2018-Mar-29 23:52 UTC. Time now 2018-Apr-21 23:24 UTC.
Position S 29°36' E 032°03'.
Warning: this ship's position is 22 days out of date.

Length 190 m; draft 12.5 m.

Type: Cargo ship. MMSI: 256759020.

Date/timePositionNaut miles runAvg speedWind from/ knotsBaromVisibWave heightAir tempDewpointWater temp
2018-Mar-29 23:52S 29°36' E 032°03'3 8.1
2018-Mar-29 23:30S 29°38' E 032°01'4 8.0
2018-Mar-29 23:00S 29°41' E 031°58'4 8.0
2018-Mar-29 22:27S 29°45' E 031°54'3 7.9
2018-Mar-29 22:00S 29°47' E 031°52'4 8.2
2018-Mar-29 21:30S 29°51' E 031°49'4 8.1
2018-Mar-29 21:00S 29°54' E 031°47'4 8.1
2018-Mar-29 20:30S 29°57' E 031°44'4 8.1
2018-Mar-29 20:00S 30°01' E 031°41'4 8.3
2018-Mar-29 19:30S 30°04' E 031°38'4 8.9
2018-Mar-29 19:00S 30°08' E 031°35'4 8.9
2018-Mar-29 18:30S 30°11' E 031°32'4 8.8
2018-Mar-29 18:00S 30°15' E 031°29'4 8.9
2018-Mar-29 17:30S 30°18' E 031°26'5 9.1
2018-Mar-29 17:00S 30°22' E 031°22'5 9.6
2018-Mar-29 16:30S 30°26' E 031°19'510.0
2018-Mar-29 15:59S 30°30' E 031°15'1110.2
2018-Mar-29 14:56S 30°38' E 031°08'510.3
2018-Mar-29 14:29S 30°42' E 031°05'510.2
2018-Mar-29 14:00S 30°46' E 031°02'610.0
2018-Mar-29 13:27S 30°51' E 030°58'410.0
2018-Mar-29 13:00S 30°54' E 030°55'510.2
2018-Mar-29 12:30S 30°58' E 030°51'510.2
2018-Mar-29 12:00S 31°02' E 030°47'510.3
2018-Mar-29 11:30S 31°06' E 030°44'510.4
2018-Mar-29 11:00S 31°10' E 030°40'510.3
2018-Mar-29 10:30S 31°15' E 030°36'510.2
2018-Mar-29 09:59S 31°19' E 030°33'1410.0
2018-Mar-29 08:34S 31°30' E 030°23'1 9.9
2018-Mar-29 08:26S 31°31' E 030°22'  
Track history (hours):
 
Tides and Currents Weather Stations Pressure Air Temp Water Temp Dewpoint Dewpoint Depression Visibility Wind Speed Wind Dir Waves Ship Positions

Imperial Eagle

Last reported at 2018-Mar-29 23:52 UTC. Time now 2018-Apr-21 23:24 UTC.
Position S 29°36' E 032°03'.
Warning: this ship's position is 22 days out of date.

Length 190 m; draft 12.5 m.

Type: Cargo ship. MMSI: 256759020.

Date/timePositionNaut miles runAvg speedWind from/ knotsBaromVisibWave heightAir tempDewpointWater temp
2018-Mar-29 23:52S 29°36' E 032°03'3 8.1
2018-Mar-29 23:30S 29°38' E 032°01'4 8.0
2018-Mar-29 23:00S 29°41' E 031°58'4 8.0
2018-Mar-29 22:27S 29°45' E 031°54'3 7.9
2018-Mar-29 22:00S 29°47' E 031°52'4 8.2
2018-Mar-29 21:30S 29°51' E 031°49'4 8.1
2018-Mar-29 21:00S 29°54' E 031°47'4 8.1
2018-Mar-29 20:30S 29°57' E 031°44'4 8.1
2018-Mar-29 20:00S 30°01' E 031°41'4 8.3
2018-Mar-29 19:30S 30°04' E 031°38'4 8.9
2018-Mar-29 19:00S 30°08' E 031°35'4 8.9
2018-Mar-29 18:30S 30°11' E 031°32'4 8.8
2018-Mar-29 18:00S 30°15' E 031°29'4 8.9
2018-Mar-29 17:30S 30°18' E 031°26'5 9.1
2018-Mar-29 17:00S 30°22' E 031°22'5 9.6
2018-Mar-29 16:30S 30°26' E 031°19'510.0
2018-Mar-29 15:59S 30°30' E 031°15'1110.2
2018-Mar-29 14:56S 30°38' E 031°08'510.3
2018-Mar-29 14:29S 30°42' E 031°05'510.2
2018-Mar-29 14:00S 30°46' E 031°02'610.0
2018-Mar-29 13:27S 30°51' E 030°58'410.0
2018-Mar-29 13:00S 30°54' E 030°55'510.2
2018-Mar-29 12:30S 30°58' E 030°51'510.2
2018-Mar-29 12:00S 31°02' E 030°47'510.3
2018-Mar-29 11:30S 31°06' E 030°44'510.4
2018-Mar-29 11:00S 31°10' E 030°40'510.3
2018-Mar-29 10:30S 31°15' E 030°36'510.2
2018-Mar-29 09:59S 31°19' E 030°33'1410.0
2018-Mar-29 08:34S 31°30' E 030°23'1 9.9
2018-Mar-29 08:26S 31°31' E 030°22'  

Dump ship's entire track history